Aérodrome :
LOGIN :

S'inscrire | Disclaimer

   EN    FR    IT 

 










Légende :    VFR   VFR Marginal   IFR   IFR Intensif   IFR Très Intensif
Visi : 
Plafond : 
>= 8 km
>= 3000ft
5 à 8 km
1000 à 3000 ft
1500m à 5 km
500 à 1000 ft
800 à 1500m
200 à 500 ft
< 800m
< 200 ft
Symboles :   Orages  Brouillard  Fortes neiges  Fortes précipitations  Vent > 20 kt
SIGMETs :   Divers  Orages  Givrage  Turbulence  Onde Orograph.  Cendres Volcan.







- Altitude de l'aérodrome : 3 ft
- Code IATA : DHR


EHKD - Den Helder De Kooy

DERNIER METAR :
  • 190655Z AUTO 07003KT 9999 FEW029 BKN038 BKN048 12/11 Q1030 REDZ BLU 02003KT 9999 SCT025 BKN030 TEMPO 4500 -RADZ SCT017 BKN025

METARs EXPIRÉS :
  • 190635Z AUTO 03004KT 340V060 9999 -SHRA DZ FEW012 SCT030 OVC037 12/11 Q1030 BLU 02003KT 9999 SCT025 BKN030 TEMPO 4500 -RADZ SCT017 BKN025
  • 190628Z AUTO 01003KT 330V050 5000 RA FEW020 OVC024 12/11 Q1030 WHT 02003KT 9999 SCT025 BKN030 TEMPO 4500 -RADZ SCT017 BKN025
  • 190625Z AUTO 03004KT 340V070 9999 BKN024 BKN027 OVC032 12/11 Q1030 REDZ WHT 02003KT 9999 SCT025 BKN030 TEMPO 4500 -RADZ SCT017 BKN025
  • 190555Z AUTO 02003KT 350V050 9999 DZ FEW027 SCT033 OVC038 12/11 Q1030 BLU 02003KT 9999 SCT025 BKN030 TEMPO 4500 -RADZ SCT017 BKN025
  • 190539Z AUTO 03003KT 360V060 9999 FEW016 SCT023 BKN034 12/11 Q1030 WHT 02003KT 9999 FEW018 SCT025 BKN030 TEMPO 4500 -RADZ SCT017 BKN025
  • 190526Z AUTO 05003KT 020V080 9999 FEW018 BKN026 BKN031 12/11 Q1030 BLU 02003KT 9999 FEW018 SCT025 BKN030 TEMPO 4500 -RADZ SCT017 BKN025
  • 190525Z AUTO 05003KT 020V080 9999 FEW013 SCT018 BKN024 12/11 Q1030 WHT 35005KT 9999 FEW012 SCT017 BKN025
  • 190514Z AUTO 04003KT 010V080 9999 SCT011/// BKN017/// OVC021/// 12/11 Q1030 GRN 35005KT 9999 FEW014 SCT018 BKN025
  • 190455Z AUTO 05001KT 9999 BKN020 OVC023 12/11 Q1029 RERA WHT 35005KT 9999 FEW014 SCT018 BKN025
  • 190440Z AUTO 35004KT 310V040 9000 -SHRA FEW017 SCT020 BKN023 12/11 Q1029 WHT 35005KT 9999 FEW014 SCT018 BKN025
  • 190428Z AUTO 34006KT 290V030 4800 RA FEW007 BKN017 BKN021 12/10 Q1029 GRN 35005KT 9999 FEW014 SCT018 BKN025
  • 190425Z AUTO 30005KT 240V030 9999 -RA FEW016 SCT019 BKN023 12/10 Q1029 RERA REDZ WHT 35005KT 9999 FEW014 SCT018 BKN025
  • 190405Z AUTO VRB04KT 6000 +DZRA FEW014 SCT022 BKN026 12/10 Q1029 WHT
  • 190355Z AUTO 07005KT 9999 BKN028 BKN032 OVC037 12/10 Q1029 BLU

TAF TAF EHKD
Valide du 19 à 05h jusqu'au 19 à 17h UTC


190412Z 1905/1917 01005KT 9999 SCT025 BKN033 BKN055
TEMPO 1905/1917 4500 -RADZ SCT018 SCT028 BKN033
Pas de NOTAMs connus pour ce terrain.



MET'MAP, la Météo Aéronautique d'un coup d'oeil ! - Copyright ORBIFLY Décembre 2007 - Disclaimer

ORBIFLY MET'MAP TEAM :

Programmation & Développement : Alexandra Zaïnal
Conception & Développement : Baudouin d'Aumeries
Co-Programmation & Développement : Marc-Olivier Méhu
Soutien technique & logistique : Manuel Goepfert

Contact : metmap@orbifly.com




SOURCES & CREDITS :

   NOAA